createdAt,value
2022-09-28T00:00:51.463Z,19
2022-09-28T00:03:51.460Z,16
2022-09-28T00:06:51.426Z,13
2022-09-28T00:08:51.438Z,9
2022-09-28T00:11:51.488Z,10
2022-09-28T00:13:51.485Z,7
2022-09-28T00:15:51.550Z,7
2022-09-28T00:18:51.570Z,9
2022-09-28T00:21:51.482Z,6
2022-09-28T00:24:51.460Z,7
2022-09-28T00:27:51.444Z,5
2022-09-28T00:30:51.459Z,7
2022-09-28T00:32:51.497Z,7
2022-09-28T00:35:51.439Z,6
2022-09-28T00:38:51.472Z,6
2022-09-28T00:41:51.442Z,6
2022-09-28T00:44:51.499Z,6
2022-09-28T00:47:51.440Z,7
2022-09-28T00:49:51.473Z,7
2022-09-28T00:51:51.749Z,7
2022-09-28T00:54:51.464Z,6
2022-09-28T00:57:51.491Z,5
2022-09-28T00:59:51.479Z,5
2022-09-28T01:02:51.454Z,7
2022-09-28T01:04:51.460Z,7
2022-09-28T01:06:51.504Z,7
2022-09-28T01:09:51.473Z,6
2022-09-28T01:11:51.707Z,6
2022-09-28T01:14:51.463Z,5
2022-09-28T01:17:51.466Z,6
2022-09-28T01:19:51.523Z,6
2022-09-28T01:22:51.466Z,8
2022-09-28T01:24:51.456Z,8
2022-09-28T01:26:51.467Z,5
2022-09-28T01:28:51.480Z,6
2022-09-28T01:31:51.623Z,5
2022-09-28T01:33:51.509Z,5
2022-09-28T01:35:51.519Z,5
2022-09-28T01:38:51.484Z,5
2022-09-28T01:41:51.456Z,7
2022-09-28T01:43:51.486Z,8
2022-09-28T01:46:51.489Z,4
2022-09-28T01:48:51.509Z,5
2022-09-28T01:51:51.458Z,5
2022-09-28T01:53:51.539Z,5
2022-09-28T01:56:51.448Z,6
2022-09-28T01:59:51.493Z,5
2022-09-28T02:02:51.467Z,8
2022-09-28T02:05:51.481Z,4
2022-09-28T02:07:51.455Z,3
2022-09-28T02:09:51.478Z,3
2022-09-28T02:11:51.469Z,2
2022-09-28T02:14:51.468Z,3
2022-09-28T02:16:51.482Z,3
2022-09-28T02:19:51.469Z,3
2022-09-28T02:21:51.459Z,3
2022-09-28T02:24:51.480Z,3
2022-09-28T02:27:51.464Z,7
2022-09-28T02:30:51.488Z,4
2022-09-28T02:33:51.447Z,4
2022-09-28T02:36:51.442Z,4
2022-09-28T02:39:07.071Z,4
2022-09-28T02:41:51.461Z,4
2022-09-28T02:43:51.449Z,5
2022-09-28T02:46:51.437Z,5
2022-09-28T02:49:00.395Z,4
2022-09-28T02:50:51.459Z,4
2022-09-28T02:53:51.443Z,5
2022-09-28T02:56:51.452Z,4
2022-09-28T02:59:51.478Z,5
2022-09-28T03:01:51.505Z,6
2022-09-28T03:04:51.486Z,5
2022-09-28T03:07:51.463Z,5
2022-09-28T03:09:51.498Z,6
2022-09-28T03:12:51.456Z,6
2022-09-28T03:15:51.514Z,7
2022-09-28T03:17:51.502Z,5
2022-09-28T03:20:51.482Z,8
2022-09-28T03:23:51.467Z,5
2022-09-28T03:25:51.491Z,7
2022-09-28T03:28:51.469Z,8
2022-09-28T03:30:51.491Z,9
2022-09-28T03:33:51.482Z,8
2022-09-28T03:36:51.483Z,7
2022-09-28T03:39:51.479Z,13
2022-09-28T03:41:51.520Z,8
2022-09-28T03:44:51.469Z,8
2022-09-28T03:46:51.491Z,8
2022-09-28T03:48:51.504Z,10
2022-09-28T03:51:51.527Z,7
2022-09-28T03:53:51.507Z,12
2022-09-28T03:55:51.511Z,10
2022-09-28T03:58:51.474Z,8
2022-09-28T04:00:51.506Z,11
2022-09-28T04:04:07.236Z,16
2022-09-28T04:05:51.508Z,11
2022-09-28T04:08:51.481Z,9
2022-09-28T04:10:51.540Z,8
2022-09-28T04:12:53.272Z,13
2022-09-28T04:14:53.269Z,9
2022-09-28T04:16:53.354Z,8
2022-09-28T04:18:53.300Z,11
2022-09-28T04:20:53.293Z,9
2022-09-28T04:23:53.293Z,10
2022-09-28T04:25:53.288Z,10
2022-09-28T04:28:53.289Z,11
2022-09-28T04:30:53.289Z,9
2022-09-28T04:33:53.295Z,10
2022-09-28T04:36:53.286Z,10
2022-09-28T04:39:53.309Z,9
2022-09-28T04:42:53.290Z,8
2022-09-28T04:45:53.364Z,11
2022-09-28T04:48:53.310Z,9
2022-09-28T04:51:53.295Z,13
2022-09-28T04:54:53.280Z,8
2022-09-28T04:57:53.306Z,12
2022-09-28T05:00:53.312Z,9
2022-09-28T05:02:54.349Z,11
2022-09-28T05:04:53.258Z,10
2022-09-28T05:06:53.291Z,11
2022-09-28T05:09:53.273Z,9
2022-09-28T05:12:53.269Z,10
2022-09-28T05:15:57.030Z,11
2022-09-28T05:17:53.288Z,10
2022-09-28T05:19:53.287Z,9
2022-09-28T05:22:53.273Z,9
2022-09-28T05:25:53.294Z,14
2022-09-28T05:28:53.309Z,11
2022-09-28T05:31:53.345Z,12
2022-09-28T05:33:53.302Z,9
2022-09-28T05:36:53.292Z,11
2022-09-28T05:38:53.307Z,10
2022-09-28T05:41:53.285Z,9
2022-09-28T05:44:53.293Z,11
2022-09-28T05:47:53.306Z,11
2022-09-28T05:50:53.282Z,13
2022-09-28T05:53:53.287Z,9
2022-09-28T05:56:53.279Z,13
2022-09-28T05:58:53.282Z,12
2022-09-28T06:01:53.288Z,8
2022-09-28T06:03:53.309Z,13
2022-09-28T06:06:53.294Z,13
2022-09-28T06:09:53.316Z,11
2022-09-28T06:11:53.320Z,11
2022-09-28T06:14:53.288Z,13
2022-09-28T06:17:53.299Z,9
2022-09-28T06:19:53.334Z,10
2022-09-28T06:22:53.275Z,9
2022-09-28T06:25:53.289Z,10
2022-09-28T06:27:53.271Z,16
2022-09-28T06:29:53.325Z,12
2022-09-28T06:32:53.275Z,10
2022-09-28T06:35:53.284Z,14
2022-09-28T06:38:53.288Z,19
2022-09-28T06:40:53.313Z,13
2022-09-28T06:43:53.273Z,10
2022-09-28T06:46:53.303Z,15
2022-09-28T06:49:53.293Z,12
2022-09-28T06:51:53.340Z,11
2022-09-28T06:54:53.276Z,10
2022-09-28T06:56:53.287Z,13
2022-09-28T06:58:53.308Z,16
2022-09-28T07:03:55.611Z,11
2022-09-28T07:05:53.323Z,9
2022-09-28T07:09:03.464Z,12
2022-09-28T07:10:53.308Z,9
2022-09-28T07:13:53.330Z,10
2022-09-28T07:17:07.507Z,10
2022-09-28T07:19:53.298Z,13
2022-09-28T07:22:01.754Z,11
2022-09-28T07:24:53.305Z,7
2022-09-28T07:26:53.307Z,11
2022-09-28T07:29:53.308Z,14
2022-09-28T07:31:53.287Z,12
2022-09-28T07:33:53.282Z,24
2022-09-28T07:35:53.308Z,11
2022-09-28T07:37:53.381Z,11
2022-09-28T07:40:53.382Z,13
2022-09-28T07:43:53.324Z,10
2022-09-28T07:46:53.300Z,12
2022-09-28T07:49:53.370Z,11
2022-09-28T07:52:53.332Z,11
2022-09-28T07:54:53.300Z,12
2022-09-28T07:56:53.364Z,11
2022-09-28T07:59:53.304Z,8
2022-09-28T08:01:53.335Z,9
2022-09-28T08:04:53.603Z,12
2022-09-28T08:07:53.326Z,6
2022-09-28T08:10:53.322Z,12
2022-09-28T08:13:53.311Z,10
2022-09-28T08:15:53.329Z,9
2022-09-28T08:18:53.308Z,12
2022-09-28T08:21:53.336Z,10
2022-09-28T08:24:53.289Z,10
2022-09-28T08:26:53.308Z,9
2022-09-28T08:29:53.321Z,10
2022-09-28T08:31:53.324Z,11
2022-09-28T08:33:53.320Z,9
2022-09-28T08:36:53.316Z,8
2022-09-28T08:39:53.313Z,8
2022-09-28T08:41:53.343Z,11
2022-09-28T08:44:53.302Z,12
2022-09-28T08:46:53.343Z,17
2022-09-28T08:52:53.312Z,8
2022-09-28T08:54:53.285Z,12
2022-09-28T08:56:53.318Z,9
2022-09-28T08:58:53.304Z,11
2022-09-28T09:00:53.331Z,11
2022-09-28T09:02:53.428Z,10
2022-09-28T09:05:53.314Z,10
2022-09-28T09:08:53.315Z,9
2022-09-28T09:11:53.301Z,10
2022-09-28T09:13:53.305Z,12
2022-09-28T09:16:53.337Z,10
2022-09-28T09:18:53.330Z,9
2022-09-28T09:20:53.344Z,8
2022-09-28T09:23:53.324Z,12
2022-09-28T09:25:53.341Z,10
2022-09-28T09:28:53.331Z,10
2022-09-28T09:30:53.393Z,13
2022-09-28T09:32:53.405Z,10
2022-09-28T09:34:53.336Z,9
2022-09-28T09:37:56.472Z,9
2022-09-28T09:39:53.332Z,11
2022-09-28T09:43:08.992Z,10
2022-09-28T09:44:53.338Z,12
2022-09-28T09:47:53.321Z,16
2022-09-28T09:49:56.435Z,10
2022-09-28T09:51:53.342Z,8
2022-09-28T09:54:53.347Z,9
2022-09-28T09:56:53.388Z,8
2022-09-28T09:59:53.336Z,11
2022-09-28T10:02:53.368Z,8
2022-09-28T10:05:53.337Z,10
2022-09-28T10:07:53.332Z,9
2022-09-28T10:10:53.343Z,8
2022-09-28T10:12:53.336Z,13
2022-09-28T10:15:53.341Z,10
2022-09-28T10:17:53.336Z,9
2022-09-28T10:19:53.333Z,11
2022-09-28T10:22:53.324Z,10
2022-09-28T10:24:53.343Z,10
2022-09-28T10:27:53.338Z,10
2022-09-28T10:30:53.487Z,11
2022-09-28T10:33:53.334Z,8
2022-09-28T10:35:53.357Z,9
2022-09-28T10:38:53.333Z,9
2022-09-28T10:41:53.350Z,11
2022-09-28T10:43:56.129Z,9
2022-09-28T10:46:53.354Z,10
2022-09-28T10:48:53.356Z,8
2022-09-28T10:51:53.344Z,8
2022-09-28T10:54:53.356Z,7
2022-09-28T10:57:53.349Z,6
2022-09-28T11:00:53.404Z,7
2022-09-28T11:02:53.469Z,8
2022-09-28T11:05:53.363Z,8
2022-09-28T11:08:53.352Z,7
2022-09-28T11:11:53.344Z,8
2022-09-28T11:13:53.345Z,7
2022-09-28T11:16:53.386Z,7
2022-09-28T11:19:53.310Z,6
2022-09-28T11:23:53.330Z,8
2022-09-28T11:25:53.326Z,6
2022-09-28T11:28:53.320Z,5
2022-09-28T11:31:53.334Z,6
2022-09-28T11:33:53.390Z,7
2022-09-28T11:36:53.330Z,7
2022-09-28T11:39:53.314Z,7
2022-09-28T11:41:53.342Z,4
2022-09-28T11:44:53.326Z,7
2022-09-28T11:47:53.340Z,8
2022-09-28T11:50:53.356Z,7
2022-09-28T11:53:53.326Z,6
2022-09-28T11:55:53.360Z,7
2022-09-28T11:57:53.330Z,6
2022-09-28T12:00:53.365Z,8
2022-09-28T12:03:53.387Z,7
2022-09-28T12:06:00.525Z,11
2022-09-28T12:08:53.339Z,6
2022-09-28T12:11:53.344Z,6
2022-09-28T12:13:53.311Z,8
2022-09-28T12:17:05.229Z,6
2022-09-28T12:18:53.373Z,7
2022-09-28T12:21:53.365Z,6
2022-09-28T12:23:53.332Z,6
2022-09-28T12:25:53.345Z,7
2022-09-28T12:27:53.351Z,6
2022-09-28T12:30:53.444Z,8
2022-09-28T12:33:53.372Z,9
2022-09-28T12:36:53.371Z,5
2022-09-28T12:39:57.786Z,7
2022-09-28T12:42:53.366Z,13
2022-09-28T12:44:55.898Z,6
2022-09-28T12:47:53.355Z,7
2022-09-28T12:50:37.904Z,5
2022-09-28T12:51:53.388Z,6
2022-09-28T12:53:53.394Z,8
2022-09-28T12:56:53.365Z,6
2022-09-28T12:59:53.362Z,6
2022-09-28T13:02:53.432Z,7
2022-09-28T13:04:53.366Z,6
2022-09-28T13:07:53.371Z,7
2022-09-28T13:09:53.382Z,9
2022-09-28T13:12:53.378Z,5
2022-09-28T13:15:53.411Z,8
2022-09-28T13:17:53.369Z,5
2022-09-28T13:20:53.366Z,6
2022-09-28T13:22:53.368Z,5
2022-09-28T13:25:53.369Z,6
2022-09-28T13:28:53.371Z,7
2022-09-28T13:30:53.447Z,6
2022-09-28T13:33:53.364Z,5
2022-09-28T13:36:53.354Z,7
2022-09-28T13:38:53.361Z,6
2022-09-28T13:41:53.342Z,5
2022-09-28T13:43:53.368Z,5
2022-09-28T13:46:53.358Z,4
2022-09-28T13:48:53.363Z,5
2022-09-28T13:51:53.365Z,7
2022-09-28T13:54:53.363Z,5
2022-09-28T13:56:53.372Z,19
2022-09-28T13:59:53.353Z,65
2022-09-28T14:01:53.434Z,7
2022-09-28T14:04:53.358Z,4
2022-09-28T14:06:54.806Z,5
2022-09-28T14:08:53.372Z,3
2022-09-28T14:11:53.360Z,6
2022-09-28T14:13:53.382Z,6
2022-09-28T14:16:53.380Z,6
2022-09-28T14:19:53.360Z,10
2022-09-28T14:21:53.386Z,7
2022-09-28T14:24:53.375Z,5
2022-09-28T14:26:53.394Z,7
2022-09-28T14:29:53.357Z,6
2022-09-28T14:31:53.396Z,8
2022-09-28T14:33:53.379Z,6
2022-09-28T14:35:53.400Z,6
2022-09-28T14:37:53.379Z,4
2022-09-28T14:40:53.449Z,6
2022-09-28T14:43:53.367Z,5
2022-09-28T14:46:53.885Z,4
2022-09-28T14:49:53.368Z,6
2022-09-28T14:52:53.428Z,5
2022-09-28T14:54:53.382Z,6
2022-09-28T14:56:53.418Z,7
2022-09-28T14:59:53.387Z,7
2022-09-28T15:02:53.386Z,9
2022-09-28T15:05:53.420Z,6
2022-09-28T15:08:53.387Z,6
2022-09-28T15:10:53.405Z,5
2022-09-28T15:13:53.368Z,5
2022-09-28T15:15:53.426Z,8
2022-09-28T15:18:53.395Z,8
2022-09-28T15:20:53.403Z,7
2022-09-28T15:23:53.384Z,7
2022-09-28T15:25:53.412Z,6
2022-09-28T15:28:53.398Z,7
2022-09-28T15:30:53.482Z,8
2022-09-28T15:33:53.414Z,6
2022-09-28T15:36:53.402Z,5
2022-09-28T15:39:53.410Z,7
2022-09-28T15:42:57.082Z,11
2022-09-28T15:45:53.425Z,6
2022-09-28T15:47:53.400Z,6
2022-09-28T15:49:53.406Z,8
2022-09-28T15:52:53.391Z,5
2022-09-28T15:55:53.406Z,7
2022-09-28T15:58:53.385Z,7
2022-09-28T16:00:53.443Z,8
2022-09-28T16:03:53.396Z,13
2022-09-28T16:06:53.401Z,7
2022-09-28T16:09:53.400Z,9
2022-09-28T16:12:53.400Z,6
2022-09-28T16:15:53.441Z,9
2022-09-28T16:17:53.387Z,6
2022-09-28T16:19:53.375Z,7
2022-09-28T16:21:53.411Z,10
2022-09-28T16:24:53.366Z,7
2022-09-28T16:27:53.407Z,9
2022-09-28T16:29:53.400Z,8
2022-09-28T16:32:53.386Z,6
2022-09-28T16:34:53.380Z,9
2022-09-28T16:37:53.393Z,8
2022-09-28T16:40:53.436Z,8
2022-09-28T16:43:53.382Z,8
2022-09-28T16:45:53.497Z,7
2022-09-28T16:49:08.673Z,8
2022-09-28T16:50:53.399Z,7
2022-09-28T16:53:53.379Z,9
2022-09-28T16:56:53.405Z,7
2022-09-28T16:58:53.428Z,11
2022-09-28T17:01:53.511Z,8
2022-09-28T17:03:53.400Z,10
2022-09-28T17:06:53.411Z,12
2022-09-28T17:08:53.391Z,12
2022-09-28T17:11:13.747Z,11
2022-09-28T17:12:53.402Z,16
2022-09-28T17:14:53.435Z,17
2022-09-28T17:17:06.423Z,17
2022-09-28T17:18:53.462Z,17
2022-09-28T17:21:53.421Z,14
2022-09-28T17:23:53.419Z,17
2022-09-28T17:25:53.428Z,15
2022-09-28T17:27:53.416Z,18
2022-09-28T17:30:53.457Z,17
2022-09-28T17:33:53.407Z,17
2022-09-28T17:35:53.459Z,17
2022-09-28T17:38:53.424Z,14
2022-09-28T17:40:53.520Z,18
2022-09-28T17:42:53.457Z,18
2022-09-28T17:45:53.448Z,20
2022-09-28T17:47:53.418Z,22
2022-09-28T17:49:53.414Z,27
2022-09-28T17:52:53.422Z,18
2022-09-28T17:55:53.422Z,17
2022-09-28T17:58:53.396Z,15
2022-09-28T18:01:53.487Z,15
2022-09-28T18:04:53.928Z,17
2022-09-28T18:07:53.426Z,18
2022-09-28T18:10:53.426Z,17
2022-09-28T18:12:53.441Z,17
2022-09-28T18:14:53.430Z,23
2022-09-28T18:17:53.449Z,18
2022-09-28T18:19:53.418Z,16
2022-09-28T18:22:53.435Z,18
2022-09-28T18:24:53.465Z,21
2022-09-28T18:27:53.434Z,22
2022-09-28T18:29:53.431Z,25
2022-09-28T18:32:53.430Z,28
2022-09-28T18:35:53.423Z,39
2022-09-28T18:38:53.422Z,38
2022-09-28T18:40:53.480Z,31
2022-09-28T18:42:53.452Z,27
2022-09-28T18:44:53.448Z,17
2022-09-28T18:46:53.527Z,20
2022-09-28T18:49:53.460Z,18
2022-09-28T18:52:53.466Z,20
2022-09-28T18:55:53.442Z,17
2022-09-28T18:58:53.444Z,21
2022-09-28T19:01:53.520Z,20
2022-09-28T19:03:53.477Z,19
2022-09-28T19:06:53.452Z,18
2022-09-28T19:08:54.220Z,17
2022-09-28T19:11:53.451Z,20
2022-09-28T19:13:53.441Z,24
2022-09-28T19:16:56.601Z,17
2022-09-28T19:19:53.423Z,19
2022-09-28T19:21:53.509Z,17
2022-09-28T19:23:53.434Z,16
2022-09-28T19:26:53.455Z,16
2022-09-28T19:28:53.469Z,16
2022-09-28T19:31:53.455Z,15
2022-09-28T19:33:53.451Z,16
2022-09-28T19:35:53.438Z,14
2022-09-28T19:38:53.462Z,15
2022-09-28T19:40:53.486Z,16
2022-09-28T19:43:53.426Z,16
2022-09-28T19:46:53.452Z,15
2022-09-28T19:49:53.413Z,16
2022-09-28T19:52:12.513Z,16
2022-09-28T19:53:53.454Z,20
2022-09-28T19:55:53.461Z,19
2022-09-28T19:58:53.450Z,20
2022-09-28T20:01:53.484Z,20
2022-09-28T20:03:54.679Z,23
2022-09-28T20:06:53.450Z,20
2022-09-28T20:09:53.460Z,16
2022-09-28T20:12:53.420Z,19
2022-09-28T20:14:53.457Z,18
2022-09-28T20:16:53.513Z,18
2022-09-28T20:19:53.453Z,15
2022-09-28T20:21:53.491Z,17
2022-09-28T20:24:53.463Z,16
2022-09-28T20:26:53.498Z,17
2022-09-28T20:28:53.495Z,16
2022-09-28T20:31:53.475Z,14
2022-09-28T20:33:53.491Z,19
2022-09-28T20:36:53.488Z,19
2022-09-28T20:39:53.445Z,16
2022-09-28T20:42:53.483Z,18
2022-09-28T20:45:53.489Z,15
2022-09-28T20:48:53.455Z,18
2022-09-28T20:50:53.455Z,13
2022-09-28T20:53:53.451Z,15
2022-09-28T20:56:53.455Z,17
2022-09-28T20:59:54.822Z,15
2022-09-28T21:01:53.557Z,16
2022-09-28T21:04:53.447Z,20
2022-09-28T21:06:53.453Z,22
2022-09-28T21:09:53.425Z,25
2022-09-28T21:11:53.462Z,25
2022-09-28T21:13:53.447Z,22
2022-09-28T21:16:53.434Z,21
2022-09-28T21:18:53.428Z,23
2022-09-28T21:20:53.449Z,21
2022-09-28T21:22:53.480Z,16
2022-09-28T21:25:53.443Z,15
2022-09-28T21:28:53.484Z,17
2022-09-28T21:30:53.507Z,17
2022-09-28T21:33:53.436Z,15
2022-09-28T21:36:53.473Z,15
2022-09-28T21:39:53.452Z,17
2022-09-28T21:41:53.475Z,17
2022-09-28T21:44:56.315Z,14
2022-09-28T21:47:53.440Z,18
2022-09-28T21:49:53.484Z,15
2022-09-28T21:52:53.471Z,15
2022-09-28T21:55:53.478Z,17
2022-09-28T21:58:53.455Z,16
2022-09-28T22:00:56.904Z,15
2022-09-28T22:03:53.470Z,16
2022-09-28T22:05:53.460Z,14
2022-09-28T22:08:53.459Z,12
2022-09-28T22:13:53.727Z,12
2022-09-28T22:16:53.499Z,12
2022-09-28T22:19:53.527Z,13
2022-09-28T22:22:53.464Z,11
2022-09-28T22:24:53.448Z,12
2022-09-28T22:27:53.439Z,12
2022-09-28T22:30:53.491Z,13
2022-09-28T22:33:53.442Z,15
2022-09-28T22:35:53.480Z,11
2022-09-28T22:38:53.462Z,13
2022-09-28T22:40:53.553Z,13
2022-09-28T22:43:53.454Z,17
2022-09-28T22:46:53.475Z,14
2022-09-28T22:49:53.493Z,13
2022-09-28T22:52:53.460Z,14
2022-09-28T22:55:53.468Z,14
2022-09-28T22:57:53.474Z,14
2022-09-28T23:00:53.480Z,16
2022-09-28T23:03:53.460Z,13
2022-09-28T23:05:53.471Z,13
2022-09-28T23:08:53.452Z,14
2022-09-28T23:11:53.466Z,13
2022-09-28T23:13:53.472Z,12
2022-09-28T23:15:53.557Z,12
2022-09-28T23:18:53.466Z,16
2022-09-28T23:20:53.452Z,12
2022-09-28T23:23:53.488Z,14
2022-09-28T23:26:53.489Z,11
2022-09-28T23:28:53.487Z,17
2022-09-28T23:31:53.492Z,13
2022-09-28T23:34:53.474Z,11
2022-09-28T23:36:53.468Z,14
2022-09-28T23:39:53.458Z,18
2022-09-28T23:41:53.475Z,15
2022-09-28T23:44:53.477Z,17
2022-09-28T23:46:53.563Z,19
2022-09-28T23:48:53.438Z,18
2022-09-28T23:50:53.471Z,21
2022-09-28T23:53:53.464Z,21
2022-09-28T23:56:53.441Z,22
2022-09-28T23:58:53.455Z,16
